Buoy 13516

sailwx.info

Track history (hours):
 
Tides and Currents Weather Stations Pressure Air Temp Water Temp Dewpoint Dewpoint Depression Visibility Wind Speed Wind Dir Waves Ship Positions

Ao Chao Yang 13516

Last reported at 2014-Sep-19 07:00 UTC. Time now 2014-Sep-19 07:52 UTC.
Position N 27°55' W 037°48'.

Length 20 m.

Type: Fishing. MMSI: 412469022.

Water temperature 27.4 ° C

Date/timePositionNaut miles runAvg speedWind from/ knotsBaromVisibWave heightAir tempDewpointWater temp
2014-Sep-19 07:00N 27°55' W 037°48'0 0.9 27.4
2014-Sep-19 06:29N 27°55' W 037°47'0 3.6 27.4
2014-Sep-19 06:21N 27°55' W 037°47'0 0.0 27.4
2014-Sep-19 04:51N 27°55' W 037°47'0 0.0 27.5
2014-Sep-19 04:47N 27°55' W 037°47'1 0.6 27.5
2014-Sep-19 03:06N 27°54' W 037°46'0 0.3 27.5
2014-Sep-19 01:32N 27°54' W 037°46'0 0.0
2014-Sep-19 00:45N 27°54' W 037°46'0 0.1 27.6
2014-Sep-18 23:53N 27°55' W 037°46'0 3.9 27.6
2014-Sep-18 23:51N 27°55' W 037°46'0 0.0 27.6
2014-Sep-18 23:06N 27°55' W 037°46'0 0.5 27.6
2014-Sep-18 23:00N 27°55' W 037°46'1 0.9 27.6
2014-Sep-18 22:15N 27°55' W 037°46'1 1.5 27.6
2014-Sep-18 21:17N 27°54' W 037°45'0 0.0 27.6
2014-Sep-18 20:27N 27°54' W 037°45'1 6.2 27.7
2014-Sep-18 20:14N 27°55' W 037°46'0 0.0 27.7
2014-Sep-18 19:42N 27°55' W 037°46'0 0.0 27.7
2014-Sep-18 18:35N 27°55' W 037°46'0 0.3 27.9
2014-Sep-18 18:00N 27°55' W 037°46'0 0.0 27.9
2014-Sep-18 17:59N 27°55' W 037°46'1 0.6 27.9
2014-Sep-18 16:51N 27°55' W 037°46'0 0.2 27.8
2014-Sep-18 16:23N 27°55' W 037°46'1 0.4 27.7
2014-Sep-18 14:41N 27°54' W 037°45'0 0.0 27.7
2014-Sep-18 12:39N 27°54' W 037°45'0 6.5 27.5
2014-Sep-18 12:36N 27°54' W 037°46'0 1.8 27.5
2014-Sep-18 12:32N 27°54' W 037°46'0 0.0 27.5
2014-Sep-18 11:48N 27°54' W 037°46'0 3.8 27.5
2014-Sep-18 11:42N 27°55' W 037°46'0 0.0 27.5
2014-Sep-18 11:02N 27°55' W 037°46'1 6.6 27.4
2014-Sep-18 10:56N 27°55' W 037°45'0 0.0 27.4
2014-Sep-18 09:51N 27°55' W 037°45'1 0.6 27.4
2014-Sep-18 08:53N 27°54' W 037°46'110.4 27.4
2014-Sep-18 08:47N 27°54' W 037°47'1 1.2 27.4
2014-Sep-18 08:18N 27°54' W 037°46'1 0.5 27.4
2014-Sep-18 07:08N 27°54' W 037°47'125.4 27.4
2014-Sep-18 07:05N 27°54' W 037°45'1 1.9 27.4
2014-Sep-18 06:39N 27°54' W 037°45'0 0.0 27.4
2014-Sep-18 06:38N 27°54' W 037°45'1 0.4 27.4
2014-Sep-18 05:26N 27°54' W 037°44'0 0.0 27.4
2014-Sep-18 04:59N 27°54' W 037°44'0 2.2 27.4
2014-Sep-18 04:51N 27°53' W 037°44'0 0.0 27.4
2014-Sep-18 03:17N 27°53' W 037°44'0 2.4 27.5
2014-Sep-18 03:14N 27°53' W 037°44'0 0.0 27.5
2014-Sep-18 01:05N 27°53' W 037°44'0 2.1 27.5
2014-Sep-18 01:02N 27°53' W 037°44'0 0.3 27.5
2014-Sep-18 00:18N 27°54' W 037°44'0 0.0 27.5
2014-Sep-17 23:27N 27°54' W 037°44'0 0.0 27.5
2014-Sep-17 23:23N 27°54' W 037°44'0 0.0 27.5
2014-Sep-17 23:21N 27°54' W 037°44'0 8.3 27.5
2014-Sep-17 23:18N 27°53' W 037°43'0 0.4 27.5
2014-Sep-17 22:44N 27°53' W 037°43'0 0.0 27.5
2014-Sep-17 22:36N 27°53' W 037°43'120.1 27.5
2014-Sep-17 22:32N 27°54' W 037°44'0 0.4 27.5
2014-Sep-17 21:41N 27°54' W 037°44'1 0.6 27.5
2014-Sep-17 20:24N 27°54' W 037°43'0 0.0 27.6
2014-Sep-17 20:06N 27°54' W 037°43'0 0.1 27.6
2014-Sep-17 18:47N 27°54' W 037°43'0 0.0 27.6
2014-Sep-17 18:23N 27°54' W 037°43'0 0.0 27.6
2014-Sep-17 18:06N 27°54' W 037°43'1 0.6 27.6
2014-Sep-17 17:05N 27°54' W 037°42'0 0.2 27.6
2014-Sep-17 16:33N 27°54' W 037°43'0 0.2 27.6
2014-Sep-17 14:51N 27°54' W 037°42'1 1.1 27.6
2014-Sep-17 13:48N 27°53' W 037°43'0 0.6 27.6
2014-Sep-17 13:03N 27°53' W 037°43'0 0.1 27.6
2014-Sep-17 12:08N 27°53' W 037°43'112.8 27.5
2014-Sep-17 12:05N 27°53' W 037°42'0 0.0 27.5
2014-Sep-17 12:02N 27°53' W 037°42'0 0.0 27.5
2014-Sep-17 11:21N 27°53' W 037°42'1 6.4 27.5
2014-Sep-17 11:15N 27°53' W 037°43'0 0.0 27.5
2014-Sep-17 10:23N 27°53' W 037°43'0 0.0
2014-Sep-17 09:03N 27°53' W 037°43'111.7 27.5
2014-Sep-17 09:00N 27°53' W 037°42'112.6 27.5
2014-Sep-17 08:57N 27°53' W 037°42'0 4.2 27.5
2014-Sep-17 08:50N 27°53' W 037°42'0 5.9 27.5
2014-Sep-17 08:45N 27°53' W 037°42'0 0.0 27.5
2014-Sep-17 07:23N 27°53' W 037°42'1 6.0 27.5
2014-Sep-17 07:17N 27°52' W 037°41'1 6.0
2014-Sep-17 07:08N 27°53' W 037°42'0 0.0 27.5
2014-Sep-17 06:47N 27°53' W 037°42'0 0.0 27.5
2014-Sep-17 05:42N 27°53' W 037°42'0 0.6 27.6
2014-Sep-17 05:08N 27°53' W 037°42'0 3.6 27.6
2014-Sep-17 05:02N 27°52' W 037°42'0 0.1 27.6
2014-Sep-17 03:29N 27°52' W 037°42'1 7.3 27.6
2014-Sep-17 03:23N 27°52' W 037°41'0 0.0 27.6
2014-Sep-17 01:26N 27°52' W 037°41'0 6.4 27.6
2014-Sep-17 01:23N 27°52' W 037°41'2 1.9 27.6
2014-Sep-17 00:35N 27°53' W 037°40'0 0.0 27.6
2014-Sep-16 23:48N 27°53' W 037°40'0 0.0 27.6
2014-Sep-16 23:44N 27°53' W 037°40'1 1.2 27.6
2014-Sep-16 22:53N 27°52' W 037°40'0 0.0 27.6
2014-Sep-16 22:06N 27°52' W 037°40'0 6.4 27.6
2014-Sep-16 22:02N 27°52' W 037°40'0 0.0 27.6
2014-Sep-16 21:35N 27°52' W 037°40'1 0.6 27.6
2014-Sep-16 20:32N 27°52' W 037°41'124.9 27.7
2014-Sep-16 20:30N 27°52' W 037°40'1 1.3 27.7
2014-Sep-16 19:51N 27°52' W 037°41'0 0.0 27.7
2014-Sep-16 18:56N 27°52' W 037°41'0 0.0 27.7
2014-Sep-16 18:53N 27°52' W 037°41'0 0.0 27.7
2014-Sep-16 18:51N 27°52' W 037°41'1 0.8 27.7
2014-Sep-16 17:15N 27°52' W 037°39'0 0.0 27.7
2014-Sep-16 16:44N 27°52' W 037°39'1 0.4 27.7
2014-Sep-16 15:03N 27°52' W 037°39'0 0.0 27.7
2014-Sep-16 14:08N 27°52' W 037°39'0 0.0 27.7
2014-Sep-16 13:21N 27°52' W 037°39'1 0.7 27.7
2014-Sep-16 12:21N 27°51' W 037°39'1 1.8 27.6
2014-Sep-16 11:44N 27°52' W 037°41'1 7.7 27.6
2014-Sep-16 11:36N 27°52' W 037°39'1 1.0 27.6
2014-Sep-16 10:50N 27°52' W 037°39'0 0.0 27.6
2014-Sep-16 10:44N 27°52' W 037°39'0 0.0 27.6
2014-Sep-16 09:20N 27°52' W 037°39'0 2.7 27.6
2014-Sep-16 09:14N 27°52' W 037°39'0 2.1 27.6
2014-Sep-16 09:08N 27°52' W 037°39'0 0.0 27.6
2014-Sep-16 07:38N 27°52' W 037°39'0 4.3 27.7
2014-Sep-16 07:33N 27°51' W 037°38'0 1.6 27.7
2014-Sep-16 07:30N 27°51' W 037°38'0 2.6 27.7
2014-Sep-16 07:27N 27°51' W 037°38'0 0.0 27.7
2014-Sep-16 05:53N 27°51' W 037°38'0 2.9 27.7
2014-Sep-16 05:48N 27°51' W 037°38'0 0.0 27.7
2014-Sep-16 05:20N 27°51' W 037°38'0 3.7 27.7
2014-Sep-16 05:12N 27°51' W 037°38'0 0.1 27.7
2014-Sep-16 03:39N 27°51' W 037°38'111.6 27.7
2014-Sep-16 03:33N 27°51' W 037°37'0 0.2 27.7
2014-Sep-16 00:59N 27°51' W 037°37'0 0.0 27.7
2014-Sep-16 00:08N 27°51' W 037°37'0 0.3 27.8
2014-Sep-15 23:20N 27°51' W 037°37'1 2.8 27.8
2014-Sep-15 23:08N 27°51' W 037°36'0 0.0 27.8
2014-Sep-15 22:27N 27°51' W 037°36'1 9.0 27.8
2014-Sep-15 22:23N 27°51' W 037°36'0 0.0 27.8
2014-Sep-15 22:08N 27°51' W 037°36'1 0.5 27.8
2014-Sep-15 20:53N 27°51' W 037°36'0 0.0 27.9
2014-Sep-15 20:21N 27°51' W 037°36'0 0.0 27.9
2014-Sep-15 19:08N 27°51' W 037°36'1 8.4 27.9
2014-Sep-15 19:03N 27°51' W 037°36'1 0.4 27.9
2014-Sep-15 17:33N 27°51' W 037°36'0 0.0 28.0
2014-Sep-15 17:26N 27°51' W 037°36'0 0.0 28.0
2014-Sep-15 16:53N 27°51' W 037°36'0 0.3 28.0
2014-Sep-15 15:08N 27°51' W 037°36'0 0.0 27.9
2014-Sep-15 13:44N 27°51' W 037°36'0 2.2 27.9
2014-Sep-15 13:35N 27°51' W 037°37'0 0.0 27.9
2014-Sep-15 12:44N 27°51' W 037°37'0 0.0 27.8
2014-Sep-15 12:06N 27°51' W 037°37'0 0.0 27.8
2014-Sep-15 12:03N 27°51' W 037°37'1 6.8 27.8
2014-Sep-15 11:56N 27°51' W 037°36'0 0.3 27.8
2014-Sep-15 11:08N 27°51' W 037°36'0 6.8 27.7
2014-Sep-15 11:05N 27°51' W 037°36'0 0.3 27.7
2014-Sep-15 09:51N 27°51' W 037°36'1 2.8 27.7
2014-Sep-15 09:38N 27°52' W 037°35'112.6 27.7
2014-Sep-15 09:35N 27°51' W 037°35'1 0.7 27.7
2014-Sep-15 07:51N 27°51' W 037°36'0 0.0 27.7
2014-Sep-15 07:42N 27°51' W 037°36'0 0.2 27.7
2014-Sep-15 06:32N 27°51' W 037°36'0 0.3 27.8
2014-Sep-15 06:14N 27°51' W 037°36'0 0.8 27.7
2014-Sep-15 06:08N 27°51' W 037°36'0 1.6 27.8
2014-Sep-15 06:05N 27°51' W 037°36'0 2.8 27.8
2014-Sep-15 05:59N 27°51' W 037°36'0 0.0 27.8
2014-Sep-15 05:30N 27°51' W 037°36'0 0.0 27.8
2014-Sep-15 03:53N 27°51' W 037°36'0 3.2 27.8
2014-Sep-15 03:50N 27°51' W 037°36'0 1.2 27.8
2014-Sep-15 03:47N 27°51' W 037°36'1 0.4 27.8
2014-Sep-15 01:18N 27°50' W 037°35'0 0.0 27.9
2014-Sep-15 00:29N 27°50' W 037°35'0 0.1 27.9
2014-Sep-14 23:41N 27°50' W 037°36'0 0.0 28.0
2014-Sep-14 23:36N 27°50' W 037°36'0 0.5 28.0
2014-Sep-14 22:48N 27°50' W 037°35'0 5.9 28.1
2014-Sep-14 22:44N 27°51' W 037°35'0 0.0 28.1
2014-Sep-14 21:53N 27°51' W 037°35'0 0.0 28.2
2014-Sep-14 21:17N 27°51' W 037°35'1 4.7 28.2
2014-Sep-14 21:02N 27°50' W 037°34'0 0.2 28.3
2014-Sep-14 19:20N 27°50' W 037°34'0 3.2 28.5
2014-Sep-14 19:14N 27°50' W 037°34'0 0.0 28.5
2014-Sep-14 17:53N 27°50' W 037°34'0 0.8 28.7
2014-Sep-14 17:38N 27°50' W 037°34'0 0.8 28.7
2014-Sep-14 17:06N 27°51' W 037°34'1 0.4 28.8
2014-Sep-14 15:23N 27°51' W 037°35'0 0.3 28.4
2014-Sep-14 14:02N 27°50' W 037°34'0 0.4 28.0
2014-Sep-14 13:08N 27°51' W 037°34'0 0.5 27.9
2014-Sep-14 12:21N 27°50' W 037°34'0 0.5 27.8
2014-Sep-14 11:29N 27°50' W 037°34'0 9.0 27.7
2014-Sep-14 11:26N 27°50' W 037°34'0 0.4 27.7
2014-Sep-14 10:17N 27°50' W 037°34'0 0.0 27.7
2014-Sep-14 09:59N 27°50' W 037°34'0 0.0 27.6
2014-Sep-14 08:21N 27°50' W 037°34'1 1.8 27.6
2014-Sep-14 07:53N 27°50' W 037°33'1 9.0 27.6
2014-Sep-14 07:48N 27°50' W 037°34'0 0.0 27.6
2014-Sep-14 07:03N 27°50' W 037°34'0 0.2 27.6
2014-Sep-14 06:44N 27°50' W 037°34'0 1.2 27.6
2014-Sep-14 06:38N 27°50' W 037°34'0 0.0 27.6
2014-Sep-14 06:20N 27°50' W 037°34'0 1.0 27.6
2014-Sep-14 06:15N 27°50' W 037°34'0 0.5 27.6
2014-Sep-14 06:08N 27°50' W 037°34'0 0.0 27.6
2014-Sep-14 05:41N 27°50' W 037°34'0 3.6 27.7
2014-Sep-14 05:36N 27°50' W 037°34'0 0.0 27.7
2014-Sep-14 04:05N 27°50' W 037°34'0 2.4 27.7
2014-Sep-14 04:02N 27°50' W 037°34'1 7.2 27.7
2014-Sep-14 03:53N 27°49' W 037°33'0 0.0 27.7
2014-Sep-14 00:48N 27°49' W 037°33'0 0.3 27.7
2014-Sep-14 00:02N 27°49' W 037°33'0 1.3 27.7
2014-Sep-13 23:56N 27°49' W 037°33'0 0.0 27.7
2014-Sep-13 23:08N 27°49' W 037°33'1 8.1 27.7
2014-Sep-13 23:03N 27°49' W 037°34'120.7 27.7
2014-Sep-13 23:00N 27°49' W 037°33'0 0.2 27.7
2014-Sep-13 22:18N 27°49' W 037°33'0 0.0 27.7
2014-Sep-13 21:33N 27°49' W 037°33'1 0.3 27.7
2014-Sep-13 20:05N 27°49' W 037°32'0 0.0 27.8
2014-Sep-13 19:47N 27°49' W 037°32'0 0.0 27.8
2014-Sep-13 19:32N 27°49' W 037°32'125.2 27.8
2014-Sep-13 19:30N 27°49' W 037°33'0 0.0 27.8
2014-Sep-13 18:24N 27°49' W 037°33'0 4.8 27.9
2014-Sep-13 18:23N 27°49' W 037°33'0 0.8 27.9
2014-Sep-13 17:51N 27°49' W 037°33'0 0.2 27.9
2014-Sep-13 17:17N 27°49' W 037°33'0 0.3 27.9
2014-Sep-13 15:36N 27°50' W 037°33'1 0.3 27.9
2014-Sep-13 12:38N 27°50' W 037°32'0 0.0 27.7
2014-Sep-13 11:51N 27°50' W 037°32'1 5.6 27.7
2014-Sep-13 11:45N 27°49' W 037°32'0 0.0 27.7
2014-Sep-13 11:05N 27°49' W 037°32'1 7.6 27.7
2014-Sep-13 10:59N 27°49' W 037°31'0 0.1 27.7
2014-Sep-13 09:15N 27°49' W 037°32'1 1.3 27.6
2014-Sep-13 08:44N 27°50' W 037°32'1 0.8 27.6
2014-Sep-13 08:02N 27°49' W 037°32'0 0.0 27.7
2014-Sep-13 07:35N 27°49' W 037°32'0 0.1 27.7
2014-Sep-13 07:08N 27°49' W 037°32'0 2.7 27.7
2014-Sep-13 07:02N 27°49' W 037°32'0 0.0 27.7
2014-Sep-13 06:30N 27°49' W 037°32'0 2.3 27.7
2014-Sep-13 06:21N 27°49' W 037°32'0 0.3 27.7
2014-Sep-13 05:53N 27°49' W 037°32'0 0.0 27.7
2014-Sep-13 05:47N 27°49' W 037°32'0 0.0 27.7
2014-Sep-13 04:15N 27°49' W 037°32'0 1.1 27.7
2014-Sep-13 04:12N 27°49' W 037°32'1 7.9 27.7
2014-Sep-13 04:06N 27°48' W 037°32'0 0.0 27.7
2014-Sep-13 01:08N 27°48' W 037°32'116.0 27.7
2014-Sep-13 01:05N 27°48' W 037°31'0 0.7 27.7
2014-Sep-13 00:21N 27°48' W 037°31'0 0.0 27.7
2014-Sep-12 23:30N 27°48' W 037°31'0 1.1 27.7
2014-Sep-12 23:23N 27°48' W 037°31'0 0.0
2014-Sep-12 22:41N 27°48' W 037°31'0 0.3 27.8
2014-Sep-12 22:05N 27°48' W 037°31'0 0.0 27.9
2014-Sep-12 21:48N 27°48' W 037°31'117.0 27.9
2014-Sep-12 21:45N 27°48' W 037°30'0 0.0 27.9
2014-Sep-12 20:29N 27°48' W 037°30'0 0.0 27.9
2014-Sep-12 20:15N 27°48' W 037°30'0 0.0 27.9
2014-Sep-12 19:42N 27°48' W 037°30'0 0.0 27.9
2014-Sep-12 18:50N 27°48' W 037°30'0 1.0 28.1
2014-Sep-12 18:45N 27°48' W 037°30'0 0.0 28.1
2014-Sep-12 18:02N 27°48' W 037°30'1 1.2 28.2
2014-Sep-12 17:27N 27°48' W 037°29'0 2.0 28.1
2014-Sep-12 17:23N 27°48' W 037°29'0 0.2 28.1
2014-Sep-12 15:48N 27°48' W 037°30'0 0.2 28.0
2014-Sep-12 14:02N 27°48' W 037°29'0 0.0 27.9
2014-Sep-12 13:51N 27°48' W 037°29'0 0.0 27.9
2014-Sep-12 13:06N 27°48' W 037°29'0 1.5 27.8
2014-Sep-12 12:57N 27°48' W 037°30'0 0.0 27.8
2014-Sep-12 12:08N 27°48' W 037°30'116.0 27.7
2014-Sep-12 12:06N 27°48' W 037°29'0 0.1 27.7
2014-Sep-12 11:23N 27°48' W 037°29'115.0
2014-Sep-12 11:20N 27°48' W 037°29'0 0.2 27.7
2014-Sep-12 10:30N 27°48' W 037°29'0 0.0 27.7
2014-Sep-12 09:45N 27°48' W 037°29'1 1.6 27.7
2014-Sep-12 09:08N 27°49' W 037°29'0 0.0 27.7
2014-Sep-12 08:17N 27°49' W 037°29'0 0.0 27.7
2014-Sep-12 08:08N 27°49' W 037°29'0 0.7 27.7
2014-Sep-12 07:32N 27°48' W 037°29'0 0.2 27.7
2014-Sep-12 06:39N 27°48' W 037°29'0 1.5 27.7
2014-Sep-12 06:32N 27°48' W 037°29'0 0.7 27.7
2014-Sep-12 06:06N 27°48' W 037°29'1 4.0 27.7
2014-Sep-12 05:57N 27°48' W 037°30'0 0.0 27.7
2014-Sep-12 04:24N 27°48' W 037°30'0 3.2 27.7
2014-Sep-12 04:18N 27°48' W 037°30'1 0.3 27.7
2014-Sep-12 01:29N 27°47' W 037°29'0 5.4 27.7
2014-Sep-12 01:26N 27°47' W 037°29'1 1.0 27.7
2014-Sep-12 00:42N 27°47' W 037°30'1 1.6 27.7
2014-Sep-11 23:51N 27°46' W 037°29'0 0.6 27.7
2014-Sep-11 23:00N 27°47' W 037°29'0 0.0 27.8
2014-Sep-11 22:33N 27°47' W 037°29'1 1.7 27.8
2014-Sep-11 22:08N 27°47' W 037°29'123.9 27.8
2014-Sep-11 22:05N 27°47' W 037°28'0 0.0 27.8
2014-Sep-11 20:53N 27°47' W 037°28'0 0.0 27.9
2014-Sep-11 20:45N 27°47' W 037°28'0 0.3 27.9
2014-Sep-11 19:53N 27°46' W 037°28'0 0.1 27.9
2014-Sep-11 19:14N 27°46' W 037°28'0 2.8 27.9
2014-Sep-11 19:08N 27°46' W 037°28'0 0.0 27.9
2014-Sep-11 19:06N 27°46' W 037°28'0 0.2 27.9
2014-Sep-11 18:14N 27°46' W 037°28'0 0.0 28.0
2014-Sep-11 17:38N 27°46' W 037°28'0 3.7 28.1
2014-Sep-11 17:30N 27°46' W 037°27'0 0.0 28.1
2014-Sep-11 16:29N 27°46' W 037°27'0 0.0 28.0
2014-Sep-11 15:53N 27°46' W 037°27'1 0.5 27.9
2014-Sep-11 14:15N 27°46' W 037°27'0 6.4 27.9
2014-Sep-11 14:12N 27°46' W 037°26'1 0.3 27.9
2014-Sep-11 12:26N 27°47' W 037°26'0 0.0 27.7
2014-Sep-11 11:47N 27°47' W 037°26'0 0.2 27.7
2014-Sep-11 10:48N 27°47' W 037°26'0 0.3 27.7
2014-Sep-11 09:38N 27°47' W 037°26'0 0.3 27.7
2014-Sep-11 08:30N 27°47' W 037°26'0 4.8 27.7
2014-Sep-11 08:24N 27°47' W 037°26'0 0.0 27.7
2014-Sep-11 07:56N 27°47' W 037°26'0 0.2 27.7
2014-Sep-11 06:50N 27°47' W 037°26'0 5.7 27.7
2014-Sep-11 06:45N 27°47' W 037°26'0 0.0 27.7
2014-Sep-11 06:42N 27°47' W 037°26'0 0.1 27.7
2014-Sep-11 06:18N 27°47' W 037°26'0 0.0 27.7
2014-Sep-11 06:08N 27°47' W 037°26'0 0.3 27.7
2014-Sep-11 04:29N 27°46' W 037°26'1 0.4 27.7
2014-Sep-11 02:53N 27°46' W 037°26'1 0.4 27.8
2014-Sep-11 01:02N 27°46' W 037°26'0 0.0 27.8
2014-Sep-11 00:08N 27°46' W 037°26'0 0.3 27.8
2014-Sep-10 23:23N 27°46' W 037°27'0 2.1 27.8
2014-Sep-10 23:15N 27°46' W 037°27'0 0.0 27.8
2014-Sep-10 22:32N 27°46' W 037°27'1 5.0 27.9
2014-Sep-10 22:24N 27°45' W 037°27'0 0.0 27.9
2014-Sep-10 21:15N 27°45' W 037°27'1 1.2 27.9
2014-Sep-10 20:02N 27°45' W 037°25'0 0.0 27.9
2014-Sep-10 19:41N 27°45' W 037°25'0 0.0 28.0
2014-Sep-10 19:39N 27°45' W 037°25'0 0.1 28.0
2014-Sep-10 18:24N 27°45' W 037°25'0 0.7 28.0
2014-Sep-10 17:56N 27°45' W 037°25'218.6 27.9
2014-Sep-10 17:48N 27°44' W 037°23'0 0.0 27.9
2014-Sep-10 16:41N 27°44' W 037°23'0 0.0 27.9
2014-Sep-10 16:08N 27°44' W 037°23'0 0.0 27.9
2014-Sep-10 14:23N 27°44' W 037°23'1 2.5 27.9
2014-Sep-10 13:47N 27°45' W 037°22'1 0.4 27.9
2014-Sep-10 11:59N 27°46' W 037°23'0 0.0 27.8
2014-Sep-10 11:14N 27°46' W 037°23'0 3.0 27.8
2014-Sep-10 11:08N 27°46' W 037°23'0 0.0 27.7
2014-Sep-10 09:57N 27°46' W 037°23'0 0.0 27.8
2014-Sep-10 09:08N 27°46' W 037°23'0 0.3 27.8
2014-Sep-10 08:44N 27°46' W 037°23'1 1.1 27.8
2014-Sep-10 08:14N 27°46' W 037°23'0 0.0 27.8
2014-Sep-10 07:30N 27°46' W 037°23'1 1.1 27.8
2014-Sep-10 07:02N 27°46' W 037°23'0 0.0 27.8
2014-Sep-10 06:56N 27°46' W 037°23'0 0.0 27.8
2014-Sep-10 06:44N 27°46' W 037°23'114.1 27.8
2014-Sep-10 06:39N 27°46' W 037°24'1 3.4 27.8
2014-Sep-10 06:27N 27°45' W 037°23'0 0.0 27.8
2014-Sep-10 06:21N 27°45' W 037°23'0 0.0 27.8
2014-Sep-10 04:45N 27°45' W 037°23'0 0.0 27.9
2014-Sep-10 04:38N 27°45' W 037°23'1 0.7
2014-Sep-10 03:05N 27°44' W 037°23'0 0.0 27.9
2014-Sep-10 01:20N 27°44' W 037°23'0 0.0 27.9
2014-Sep-10 00:32N 27°44' W 037°23'0 0.6 27.9
2014-Sep-09 23:45N 27°44' W 037°24'0 0.0 27.9
2014-Sep-09 23:44N 27°44' W 037°24'0 2.9 27.9
2014-Sep-09 23:39N 27°44' W 037°23'1 0.9 27.9
2014-Sep-09 22:53N 27°44' W 037°23'0 2.0 27.9
2014-Sep-09 22:45N 27°44' W 037°23'1 1.1 27.9
2014-Sep-09 22:02N 27°44' W 037°22'115.3 27.9
2014-Sep-09 21:59N 27°44' W 037°23'1 0.4 27.9
2014-Sep-09 20:15N 27°44' W 037°22'160.7 28.0
2014-Sep-09 20:14N 27°43' W 037°22'0 0.0 28.0
2014-Sep-09 20:11N 27°43' W 037°22'0 0.0 28.0
2014-Sep-09 20:03N 27°43' W 037°22'0 0.0 28.0
2014-Sep-09 18:36N 27°43' W 037°22'0 0.3 28.1
2014-Sep-09 17:57N 27°43' W 037°23'1 0.6 28.1
2014-Sep-09 16:53N 27°43' W 037°22'1 1.2 28.1
2014-Sep-09 16:21N 27°43' W 037°21'1 0.5 28.2
2014-Sep-09 14:38N 27°42' W 037°20'0 0.7 28.3
2014-Sep-09 14:06N 27°43' W 037°21'1 5.1 28.2
2014-Sep-09 14:00N 27°43' W 037°20'0 0.5 28.2
2014-Sep-09 13:17N 27°43' W 037°20'0 1.2 28.1
2014-Sep-09 13:14N 27°43' W 037°20'1 0.8 28.1
2014-Sep-09 12:23N 27°43' W 037°20'0 0.1 27.9
2014-Sep-09 11:35N 27°43' W 037°20'0 1.6 27.9
2014-Sep-09 11:29N 27°43' W 037°20'0 0.4 27.9
2014-Sep-09 10:42N 27°43' W 037°19'0 0.0 27.9
2014-Sep-09 09:39N 27°43' W 037°19'0 0.3 27.9
2014-Sep-09 08:53N 27°44' W 037°20'0 0.6 27.9
2014-Sep-09 08:48N 27°44' W 037°20'0 0.4 27.9
2014-Sep-09 08:02N 27°44' W 037°19'834515886.8 27.9
2014-Sep-09 07:30N 23°10' E 116°37'834522270.0
2014-Sep-09 07:08N 27°44' W 037°20'0 3.6 27.9
2014-Sep-09 07:06N 27°44' W 037°20'   27.9
Track history (hours):
 
Tides and Currents Weather Stations Pressure Air Temp Water Temp Dewpoint Dewpoint Depression Visibility Wind Speed Wind Dir Waves Ship Positions

Ao Chao Yang 13516

Last reported at 2014-Sep-19 07:00 UTC. Time now 2014-Sep-19 07:52 UTC.
Position N 27°55' W 037°48'.

Length 20 m.

Type: Fishing. MMSI: 412469022.

Water temperature 27.4 ° C

Date/timePositionNaut miles runAvg speedWind from/ knotsBaromVisibWave heightAir tempDewpointWater temp
2014-Sep-19 07:00N 27°55' W 037°48'0 0.9 27.4
2014-Sep-19 06:29N 27°55' W 037°47'0 3.6 27.4
2014-Sep-19 06:21N 27°55' W 037°47'0 0.0 27.4
2014-Sep-19 04:51N 27°55' W 037°47'0 0.0 27.5
2014-Sep-19 04:47N 27°55' W 037°47'1 0.6 27.5
2014-Sep-19 03:06N 27°54' W 037°46'0 0.3 27.5
2014-Sep-19 01:32N 27°54' W 037°46'0 0.0
2014-Sep-19 00:45N 27°54' W 037°46'0 0.1 27.6
2014-Sep-18 23:53N 27°55' W 037°46'0 3.9 27.6
2014-Sep-18 23:51N 27°55' W 037°46'0 0.0 27.6
2014-Sep-18 23:06N 27°55' W 037°46'0 0.5 27.6
2014-Sep-18 23:00N 27°55' W 037°46'1 0.9 27.6
2014-Sep-18 22:15N 27°55' W 037°46'1 1.5 27.6
2014-Sep-18 21:17N 27°54' W 037°45'0 0.0 27.6
2014-Sep-18 20:27N 27°54' W 037°45'1 6.2 27.7
2014-Sep-18 20:14N 27°55' W 037°46'0 0.0 27.7
2014-Sep-18 19:42N 27°55' W 037°46'0 0.0 27.7
2014-Sep-18 18:35N 27°55' W 037°46'0 0.3 27.9
2014-Sep-18 18:00N 27°55' W 037°46'0 0.0 27.9
2014-Sep-18 17:59N 27°55' W 037°46'1 0.6 27.9
2014-Sep-18 16:51N 27°55' W 037°46'0 0.2 27.8
2014-Sep-18 16:23N 27°55' W 037°46'1 0.4 27.7
2014-Sep-18 14:41N 27°54' W 037°45'0 0.0 27.7
2014-Sep-18 12:39N 27°54' W 037°45'0 6.5 27.5
2014-Sep-18 12:36N 27°54' W 037°46'0 1.8 27.5
2014-Sep-18 12:32N 27°54' W 037°46'0 0.0 27.5
2014-Sep-18 11:48N 27°54' W 037°46'0 3.8 27.5
2014-Sep-18 11:42N 27°55' W 037°46'0 0.0 27.5
2014-Sep-18 11:02N 27°55' W 037°46'1 6.6 27.4
2014-Sep-18 10:56N 27°55' W 037°45'0 0.0 27.4
2014-Sep-18 09:51N 27°55' W 037°45'1 0.6 27.4
2014-Sep-18 08:53N 27°54' W 037°46'110.4 27.4
2014-Sep-18 08:47N 27°54' W 037°47'1 1.2 27.4
2014-Sep-18 08:18N 27°54' W 037°46'1 0.5 27.4
2014-Sep-18 07:08N 27°54' W 037°47'125.4 27.4
2014-Sep-18 07:05N 27°54' W 037°45'1 1.9 27.4
2014-Sep-18 06:39N 27°54' W 037°45'0 0.0 27.4
2014-Sep-18 06:38N 27°54' W 037°45'1 0.4 27.4
2014-Sep-18 05:26N 27°54' W 037°44'0 0.0 27.4
2014-Sep-18 04:59N 27°54' W 037°44'0 2.2 27.4
2014-Sep-18 04:51N 27°53' W 037°44'0 0.0 27.4
2014-Sep-18 03:17N 27°53' W 037°44'0 2.4 27.5
2014-Sep-18 03:14N 27°53' W 037°44'0 0.0 27.5
2014-Sep-18 01:05N 27°53' W 037°44'0 2.1 27.5
2014-Sep-18 01:02N 27°53' W 037°44'0 0.3 27.5
2014-Sep-18 00:18N 27°54' W 037°44'0 0.0 27.5
2014-Sep-17 23:27N 27°54' W 037°44'0 0.0 27.5
2014-Sep-17 23:23N 27°54' W 037°44'0 0.0 27.5
2014-Sep-17 23:21N 27°54' W 037°44'0 8.3 27.5
2014-Sep-17 23:18N 27°53' W 037°43'0 0.4 27.5
2014-Sep-17 22:44N 27°53' W 037°43'0 0.0 27.5
2014-Sep-17 22:36N 27°53' W 037°43'120.1 27.5
2014-Sep-17 22:32N 27°54' W 037°44'0 0.4 27.5
2014-Sep-17 21:41N 27°54' W 037°44'1 0.6 27.5
2014-Sep-17 20:24N 27°54' W 037°43'0 0.0 27.6
2014-Sep-17 20:06N 27°54' W 037°43'0 0.1 27.6
2014-Sep-17 18:47N 27°54' W 037°43'0 0.0 27.6
2014-Sep-17 18:23N 27°54' W 037°43'0 0.0 27.6
2014-Sep-17 18:06N 27°54' W 037°43'1 0.6 27.6
2014-Sep-17 17:05N 27°54' W 037°42'0 0.2 27.6
2014-Sep-17 16:33N 27°54' W 037°43'0 0.2 27.6
2014-Sep-17 14:51N 27°54' W 037°42'1 1.1 27.6
2014-Sep-17 13:48N 27°53' W 037°43'0 0.6 27.6
2014-Sep-17 13:03N 27°53' W 037°43'0 0.1 27.6
2014-Sep-17 12:08N 27°53' W 037°43'112.8 27.5
2014-Sep-17 12:05N 27°53' W 037°42'0 0.0 27.5
2014-Sep-17 12:02N 27°53' W 037°42'0 0.0 27.5
2014-Sep-17 11:21N 27°53' W 037°42'1 6.4 27.5
2014-Sep-17 11:15N 27°53' W 037°43'0 0.0 27.5
2014-Sep-17 10:23N 27°53' W 037°43'0 0.0
2014-Sep-17 09:03N 27°53' W 037°43'111.7 27.5
2014-Sep-17 09:00N 27°53' W 037°42'112.6 27.5
2014-Sep-17 08:57N 27°53' W 037°42'0 4.2 27.5
2014-Sep-17 08:50N 27°53' W 037°42'0 5.9 27.5
2014-Sep-17 08:45N 27°53' W 037°42'0 0.0 27.5
2014-Sep-17 07:23N 27°53' W 037°42'1 6.0 27.5
2014-Sep-17 07:17N 27°52' W 037°41'1 6.0
2014-Sep-17 07:08N 27°53' W 037°42'0 0.0 27.5
2014-Sep-17 06:47N 27°53' W 037°42'0 0.0 27.5
2014-Sep-17 05:42N 27°53' W 037°42'0 0.6 27.6
2014-Sep-17 05:08N 27°53' W 037°42'0 3.6 27.6
2014-Sep-17 05:02N 27°52' W 037°42'0 0.1 27.6
2014-Sep-17 03:29N 27°52' W 037°42'1 7.3 27.6
2014-Sep-17 03:23N 27°52' W 037°41'0 0.0 27.6
2014-Sep-17 01:26N 27°52' W 037°41'0 6.4 27.6
2014-Sep-17 01:23N 27°52' W 037°41'2 1.9 27.6
2014-Sep-17 00:35N 27°53' W 037°40'0 0.0 27.6
2014-Sep-16 23:48N 27°53' W 037°40'0 0.0 27.6
2014-Sep-16 23:44N 27°53' W 037°40'1 1.2 27.6
2014-Sep-16 22:53N 27°52' W 037°40'0 0.0 27.6
2014-Sep-16 22:06N 27°52' W 037°40'0 6.4 27.6
2014-Sep-16 22:02N 27°52' W 037°40'0 0.0 27.6
2014-Sep-16 21:35N 27°52' W 037°40'1 0.6 27.6
2014-Sep-16 20:32N 27°52' W 037°41'124.9 27.7
2014-Sep-16 20:30N 27°52' W 037°40'1 1.3 27.7
2014-Sep-16 19:51N 27°52' W 037°41'0 0.0 27.7
2014-Sep-16 18:56N 27°52' W 037°41'0 0.0 27.7
2014-Sep-16 18:53N 27°52' W 037°41'0 0.0 27.7
2014-Sep-16 18:51N 27°52' W 037°41'1 0.8 27.7
2014-Sep-16 17:15N 27°52' W 037°39'0 0.0 27.7
2014-Sep-16 16:44N 27°52' W 037°39'1 0.4 27.7
2014-Sep-16 15:03N 27°52' W 037°39'0 0.0 27.7
2014-Sep-16 14:08N 27°52' W 037°39'0 0.0 27.7
2014-Sep-16 13:21N 27°52' W 037°39'1 0.7 27.7
2014-Sep-16 12:21N 27°51' W 037°39'1 1.8 27.6
2014-Sep-16 11:44N 27°52' W 037°41'1 7.7 27.6
2014-Sep-16 11:36N 27°52' W 037°39'1 1.0 27.6
2014-Sep-16 10:50N 27°52' W 037°39'0 0.0 27.6
2014-Sep-16 10:44N 27°52' W 037°39'0 0.0 27.6
2014-Sep-16 09:20N 27°52' W 037°39'0 2.7 27.6
2014-Sep-16 09:14N 27°52' W 037°39'0 2.1 27.6
2014-Sep-16 09:08N 27°52' W 037°39'0 0.0 27.6
2014-Sep-16 07:38N 27°52' W 037°39'0 4.3 27.7
2014-Sep-16 07:33N 27°51' W 037°38'0 1.6 27.7
2014-Sep-16 07:30N 27°51' W 037°38'0 2.6 27.7
2014-Sep-16 07:27N 27°51' W 037°38'0 0.0 27.7
2014-Sep-16 05:53N 27°51' W 037°38'0 2.9 27.7
2014-Sep-16 05:48N 27°51' W 037°38'0 0.0 27.7
2014-Sep-16 05:20N 27°51' W 037°38'0 3.7 27.7
2014-Sep-16 05:12N 27°51' W 037°38'0 0.1 27.7
2014-Sep-16 03:39N 27°51' W 037°38'111.6 27.7
2014-Sep-16 03:33N 27°51' W 037°37'0 0.2 27.7
2014-Sep-16 00:59N 27°51' W 037°37'0 0.0 27.7
2014-Sep-16 00:08N 27°51' W 037°37'0 0.3 27.8
2014-Sep-15 23:20N 27°51' W 037°37'1 2.8 27.8
2014-Sep-15 23:08N 27°51' W 037°36'0 0.0 27.8
2014-Sep-15 22:27N 27°51' W 037°36'1 9.0 27.8
2014-Sep-15 22:23N 27°51' W 037°36'0 0.0 27.8
2014-Sep-15 22:08N 27°51' W 037°36'1 0.5 27.8
2014-Sep-15 20:53N 27°51' W 037°36'0 0.0 27.9
2014-Sep-15 20:21N 27°51' W 037°36'0 0.0 27.9
2014-Sep-15 19:08N 27°51' W 037°36'1 8.4 27.9
2014-Sep-15 19:03N 27°51' W 037°36'1 0.4 27.9
2014-Sep-15 17:33N 27°51' W 037°36'0 0.0 28.0
2014-Sep-15 17:26N 27°51' W 037°36'0 0.0 28.0
2014-Sep-15 16:53N 27°51' W 037°36'0 0.3 28.0
2014-Sep-15 15:08N 27°51' W 037°36'0 0.0 27.9
2014-Sep-15 13:44N 27°51' W 037°36'0 2.2 27.9
2014-Sep-15 13:35N 27°51' W 037°37'0 0.0 27.9
2014-Sep-15 12:44N 27°51' W 037°37'0 0.0 27.8
2014-Sep-15 12:06N 27°51' W 037°37'0 0.0 27.8
2014-Sep-15 12:03N 27°51' W 037°37'1 6.8 27.8
2014-Sep-15 11:56N 27°51' W 037°36'0 0.3 27.8
2014-Sep-15 11:08N 27°51' W 037°36'0 6.8 27.7
2014-Sep-15 11:05N 27°51' W 037°36'0 0.3 27.7
2014-Sep-15 09:51N 27°51' W 037°36'1 2.8 27.7
2014-Sep-15 09:38N 27°52' W 037°35'112.6 27.7
2014-Sep-15 09:35N 27°51' W 037°35'1 0.7 27.7
2014-Sep-15 07:51N 27°51' W 037°36'0 0.0 27.7
2014-Sep-15 07:42N 27°51' W 037°36'0 0.2 27.7
2014-Sep-15 06:32N 27°51' W 037°36'0 0.3 27.8
2014-Sep-15 06:14N 27°51' W 037°36'0 0.8 27.7
2014-Sep-15 06:08N 27°51' W 037°36'0 1.6 27.8
2014-Sep-15 06:05N 27°51' W 037°36'0 2.8 27.8
2014-Sep-15 05:59N 27°51' W 037°36'0 0.0 27.8
2014-Sep-15 05:30N 27°51' W 037°36'0 0.0 27.8
2014-Sep-15 03:53N 27°51' W 037°36'0 3.2 27.8
2014-Sep-15 03:50N 27°51' W 037°36'0 1.2 27.8
2014-Sep-15 03:47N 27°51' W 037°36'1 0.4 27.8
2014-Sep-15 01:18N 27°50' W 037°35'0 0.0 27.9
2014-Sep-15 00:29N 27°50' W 037°35'0 0.1 27.9
2014-Sep-14 23:41N 27°50' W 037°36'0 0.0 28.0
2014-Sep-14 23:36N 27°50' W 037°36'0 0.5 28.0
2014-Sep-14 22:48N 27°50' W 037°35'0 5.9 28.1
2014-Sep-14 22:44N 27°51' W 037°35'0 0.0 28.1
2014-Sep-14 21:53N 27°51' W 037°35'0 0.0 28.2
2014-Sep-14 21:17N 27°51' W 037°35'1 4.7 28.2
2014-Sep-14 21:02N 27°50' W 037°34'0 0.2 28.3
2014-Sep-14 19:20N 27°50' W 037°34'0 3.2 28.5
2014-Sep-14 19:14N 27°50' W 037°34'0 0.0 28.5
2014-Sep-14 17:53N 27°50' W 037°34'0 0.8 28.7
2014-Sep-14 17:38N 27°50' W 037°34'0 0.8 28.7
2014-Sep-14 17:06N 27°51' W 037°34'1 0.4 28.8
2014-Sep-14 15:23N 27°51' W 037°35'0 0.3 28.4
2014-Sep-14 14:02N 27°50' W 037°34'0 0.4 28.0
2014-Sep-14 13:08N 27°51' W 037°34'0 0.5 27.9
2014-Sep-14 12:21N 27°50' W 037°34'0 0.5 27.8
2014-Sep-14 11:29N 27°50' W 037°34'0 9.0 27.7
2014-Sep-14 11:26N 27°50' W 037°34'0 0.4 27.7
2014-Sep-14 10:17N 27°50' W 037°34'0 0.0 27.7
2014-Sep-14 09:59N 27°50' W 037°34'0 0.0 27.6
2014-Sep-14 08:21N 27°50' W 037°34'1 1.8 27.6
2014-Sep-14 07:53N 27°50' W 037°33'1 9.0 27.6
2014-Sep-14 07:48N 27°50' W 037°34'0 0.0 27.6
2014-Sep-14 07:03N 27°50' W 037°34'0 0.2 27.6
2014-Sep-14 06:44N 27°50' W 037°34'0 1.2 27.6
2014-Sep-14 06:38N 27°50' W 037°34'0 0.0 27.6
2014-Sep-14 06:20N 27°50' W 037°34'0 1.0 27.6
2014-Sep-14 06:15N 27°50' W 037°34'0 0.5 27.6
2014-Sep-14 06:08N 27°50' W 037°34'0 0.0 27.6
2014-Sep-14 05:41N 27°50' W 037°34'0 3.6 27.7
2014-Sep-14 05:36N 27°50' W 037°34'0 0.0 27.7
2014-Sep-14 04:05N 27°50' W 037°34'0 2.4 27.7
2014-Sep-14 04:02N 27°50' W 037°34'1 7.2 27.7
2014-Sep-14 03:53N 27°49' W 037°33'0 0.0 27.7
2014-Sep-14 00:48N 27°49' W 037°33'0 0.3 27.7
2014-Sep-14 00:02N 27°49' W 037°33'0 1.3 27.7
2014-Sep-13 23:56N 27°49' W 037°33'0 0.0 27.7
2014-Sep-13 23:08N 27°49' W 037°33'1 8.1 27.7
2014-Sep-13 23:03N 27°49' W 037°34'120.7 27.7
2014-Sep-13 23:00N 27°49' W 037°33'0 0.2 27.7
2014-Sep-13 22:18N 27°49' W 037°33'0 0.0 27.7
2014-Sep-13 21:33N 27°49' W 037°33'1 0.3 27.7
2014-Sep-13 20:05N 27°49' W 037°32'0 0.0 27.8
2014-Sep-13 19:47N 27°49' W 037°32'0 0.0 27.8
2014-Sep-13 19:32N 27°49' W 037°32'125.2 27.8
2014-Sep-13 19:30N 27°49' W 037°33'0 0.0 27.8
2014-Sep-13 18:24N 27°49' W 037°33'0 4.8 27.9
2014-Sep-13 18:23N 27°49' W 037°33'0 0.8 27.9
2014-Sep-13 17:51N 27°49' W 037°33'0 0.2 27.9
2014-Sep-13 17:17N 27°49' W 037°33'0 0.3 27.9
2014-Sep-13 15:36N 27°50' W 037°33'1 0.3 27.9
2014-Sep-13 12:38N 27°50' W 037°32'0 0.0 27.7
2014-Sep-13 11:51N 27°50' W 037°32'1 5.6 27.7
2014-Sep-13 11:45N 27°49' W 037°32'0 0.0 27.7
2014-Sep-13 11:05N 27°49' W 037°32'1 7.6 27.7
2014-Sep-13 10:59N 27°49' W 037°31'0 0.1 27.7
2014-Sep-13 09:15N 27°49' W 037°32'1 1.3 27.6
2014-Sep-13 08:44N 27°50' W 037°32'1 0.8 27.6
2014-Sep-13 08:02N 27°49' W 037°32'0 0.0 27.7
2014-Sep-13 07:35N 27°49' W 037°32'0 0.1 27.7
2014-Sep-13 07:08N 27°49' W 037°32'0 2.7 27.7
2014-Sep-13 07:02N 27°49' W 037°32'0 0.0 27.7
2014-Sep-13 06:30N 27°49' W 037°32'0 2.3 27.7
2014-Sep-13 06:21N 27°49' W 037°32'0 0.3 27.7
2014-Sep-13 05:53N 27°49' W 037°32'0 0.0 27.7
2014-Sep-13 05:47N 27°49' W 037°32'0 0.0 27.7
2014-Sep-13 04:15N 27°49' W 037°32'0 1.1 27.7
2014-Sep-13 04:12N 27°49' W 037°32'1 7.9 27.7
2014-Sep-13 04:06N 27°48' W 037°32'0 0.0 27.7
2014-Sep-13 01:08N 27°48' W 037°32'116.0 27.7
2014-Sep-13 01:05N 27°48' W 037°31'0 0.7 27.7
2014-Sep-13 00:21N 27°48' W 037°31'0 0.0 27.7
2014-Sep-12 23:30N 27°48' W 037°31'0 1.1 27.7
2014-Sep-12 23:23N 27°48' W 037°31'0 0.0
2014-Sep-12 22:41N 27°48' W 037°31'0 0.3 27.8
2014-Sep-12 22:05N 27°48' W 037°31'0 0.0 27.9
2014-Sep-12 21:48N 27°48' W 037°31'117.0 27.9
2014-Sep-12 21:45N 27°48' W 037°30'0 0.0 27.9
2014-Sep-12 20:29N 27°48' W 037°30'0 0.0 27.9
2014-Sep-12 20:15N 27°48' W 037°30'0 0.0 27.9
2014-Sep-12 19:42N 27°48' W 037°30'0 0.0 27.9
2014-Sep-12 18:50N 27°48' W 037°30'0 1.0 28.1
2014-Sep-12 18:45N 27°48' W 037°30'0 0.0 28.1
2014-Sep-12 18:02N 27°48' W 037°30'1 1.2 28.2
2014-Sep-12 17:27N 27°48' W 037°29'0 2.0 28.1
2014-Sep-12 17:23N 27°48' W 037°29'0 0.2 28.1
2014-Sep-12 15:48N 27°48' W 037°30'0 0.2 28.0
2014-Sep-12 14:02N 27°48' W 037°29'0 0.0 27.9
2014-Sep-12 13:51N 27°48' W 037°29'0 0.0 27.9
2014-Sep-12 13:06N 27°48' W 037°29'0 1.5 27.8
2014-Sep-12 12:57N 27°48' W 037°30'0 0.0 27.8
2014-Sep-12 12:08N 27°48' W 037°30'116.0 27.7
2014-Sep-12 12:06N 27°48' W 037°29'0 0.1 27.7
2014-Sep-12 11:23N 27°48' W 037°29'115.0
2014-Sep-12 11:20N 27°48' W 037°29'0 0.2 27.7
2014-Sep-12 10:30N 27°48' W 037°29'0 0.0 27.7
2014-Sep-12 09:45N 27°48' W 037°29'1 1.6 27.7
2014-Sep-12 09:08N 27°49' W 037°29'0 0.0 27.7
2014-Sep-12 08:17N 27°49' W 037°29'0 0.0 27.7
2014-Sep-12 08:08N 27°49' W 037°29'0 0.7 27.7
2014-Sep-12 07:32N 27°48' W 037°29'0 0.2 27.7
2014-Sep-12 06:39N 27°48' W 037°29'0 1.5 27.7
2014-Sep-12 06:32N 27°48' W 037°29'0 0.7 27.7
2014-Sep-12 06:06N 27°48' W 037°29'1 4.0 27.7
2014-Sep-12 05:57N 27°48' W 037°30'0 0.0 27.7
2014-Sep-12 04:24N 27°48' W 037°30'0 3.2 27.7
2014-Sep-12 04:18N 27°48' W 037°30'1 0.3 27.7
2014-Sep-12 01:29N 27°47' W 037°29'0 5.4 27.7
2014-Sep-12 01:26N 27°47' W 037°29'1 1.0 27.7
2014-Sep-12 00:42N 27°47' W 037°30'1 1.6 27.7
2014-Sep-11 23:51N 27°46' W 037°29'0 0.6 27.7
2014-Sep-11 23:00N 27°47' W 037°29'0 0.0 27.8
2014-Sep-11 22:33N 27°47' W 037°29'1 1.7 27.8
2014-Sep-11 22:08N 27°47' W 037°29'123.9 27.8
2014-Sep-11 22:05N 27°47' W 037°28'0 0.0 27.8
2014-Sep-11 20:53N 27°47' W 037°28'0 0.0 27.9
2014-Sep-11 20:45N 27°47' W 037°28'0 0.3 27.9
2014-Sep-11 19:53N 27°46' W 037°28'0 0.1 27.9
2014-Sep-11 19:14N 27°46' W 037°28'0 2.8 27.9
2014-Sep-11 19:08N 27°46' W 037°28'0 0.0 27.9
2014-Sep-11 19:06N 27°46' W 037°28'0 0.2 27.9
2014-Sep-11 18:14N 27°46' W 037°28'0 0.0 28.0
2014-Sep-11 17:38N 27°46' W 037°28'0 3.7 28.1
2014-Sep-11 17:30N 27°46' W 037°27'0 0.0 28.1
2014-Sep-11 16:29N 27°46' W 037°27'0 0.0 28.0
2014-Sep-11 15:53N 27°46' W 037°27'1 0.5 27.9
2014-Sep-11 14:15N 27°46' W 037°27'0 6.4 27.9
2014-Sep-11 14:12N 27°46' W 037°26'1 0.3 27.9
2014-Sep-11 12:26N 27°47' W 037°26'0 0.0 27.7
2014-Sep-11 11:47N 27°47' W 037°26'0 0.2 27.7
2014-Sep-11 10:48N 27°47' W 037°26'0 0.3 27.7
2014-Sep-11 09:38N 27°47' W 037°26'0 0.3 27.7
2014-Sep-11 08:30N 27°47' W 037°26'0 4.8 27.7
2014-Sep-11 08:24N 27°47' W 037°26'0 0.0 27.7
2014-Sep-11 07:56N 27°47' W 037°26'0 0.2 27.7
2014-Sep-11 06:50N 27°47' W 037°26'0 5.7 27.7
2014-Sep-11 06:45N 27°47' W 037°26'0 0.0 27.7
2014-Sep-11 06:42N 27°47' W 037°26'0 0.1 27.7
2014-Sep-11 06:18N 27°47' W 037°26'0 0.0 27.7
2014-Sep-11 06:08N 27°47' W 037°26'0 0.3 27.7
2014-Sep-11 04:29N 27°46' W 037°26'1 0.4 27.7
2014-Sep-11 02:53N 27°46' W 037°26'1 0.4 27.8
2014-Sep-11 01:02N 27°46' W 037°26'0 0.0 27.8
2014-Sep-11 00:08N 27°46' W 037°26'0 0.3 27.8
2014-Sep-10 23:23N 27°46' W 037°27'0 2.1 27.8
2014-Sep-10 23:15N 27°46' W 037°27'0 0.0 27.8
2014-Sep-10 22:32N 27°46' W 037°27'1 5.0 27.9
2014-Sep-10 22:24N 27°45' W 037°27'0 0.0 27.9
2014-Sep-10 21:15N 27°45' W 037°27'1 1.2 27.9
2014-Sep-10 20:02N 27°45' W 037°25'0 0.0 27.9
2014-Sep-10 19:41N 27°45' W 037°25'0 0.0 28.0
2014-Sep-10 19:39N 27°45' W 037°25'0 0.1 28.0
2014-Sep-10 18:24N 27°45' W 037°25'0 0.7 28.0
2014-Sep-10 17:56N 27°45' W 037°25'218.6 27.9
2014-Sep-10 17:48N 27°44' W 037°23'0 0.0 27.9
2014-Sep-10 16:41N 27°44' W 037°23'0 0.0 27.9
2014-Sep-10 16:08N 27°44' W 037°23'0 0.0 27.9
2014-Sep-10 14:23N 27°44' W 037°23'1 2.5 27.9
2014-Sep-10 13:47N 27°45' W 037°22'1 0.4 27.9
2014-Sep-10 11:59N 27°46' W 037°23'0 0.0 27.8
2014-Sep-10 11:14N 27°46' W 037°23'0 3.0 27.8
2014-Sep-10 11:08N 27°46' W 037°23'0 0.0 27.7
2014-Sep-10 09:57N 27°46' W 037°23'0 0.0 27.8
2014-Sep-10 09:08N 27°46' W 037°23'0 0.3 27.8
2014-Sep-10 08:44N 27°46' W 037°23'1 1.1 27.8
2014-Sep-10 08:14N 27°46' W 037°23'0 0.0 27.8
2014-Sep-10 07:30N 27°46' W 037°23'1 1.1 27.8
2014-Sep-10 07:02N 27°46' W 037°23'0 0.0 27.8
2014-Sep-10 06:56N 27°46' W 037°23'0 0.0 27.8
2014-Sep-10 06:44N 27°46' W 037°23'114.1 27.8
2014-Sep-10 06:39N 27°46' W 037°24'1 3.4 27.8
2014-Sep-10 06:27N 27°45' W 037°23'0 0.0 27.8
2014-Sep-10 06:21N 27°45' W 037°23'0 0.0 27.8
2014-Sep-10 04:45N 27°45' W 037°23'0 0.0 27.9
2014-Sep-10 04:38N 27°45' W 037°23'1 0.7
2014-Sep-10 03:05N 27°44' W 037°23'0 0.0 27.9
2014-Sep-10 01:20N 27°44' W 037°23'0 0.0 27.9
2014-Sep-10 00:32N 27°44' W 037°23'0 0.6 27.9
2014-Sep-09 23:45N 27°44' W 037°24'0 0.0 27.9
2014-Sep-09 23:44N 27°44' W 037°24'0 2.9 27.9
2014-Sep-09 23:39N 27°44' W 037°23'1 0.9 27.9
2014-Sep-09 22:53N 27°44' W 037°23'0 2.0 27.9
2014-Sep-09 22:45N 27°44' W 037°23'1 1.1 27.9
2014-Sep-09 22:02N 27°44' W 037°22'115.3 27.9
2014-Sep-09 21:59N 27°44' W 037°23'1 0.4 27.9
2014-Sep-09 20:15N 27°44' W 037°22'160.7 28.0
2014-Sep-09 20:14N 27°43' W 037°22'0 0.0 28.0
2014-Sep-09 20:11N 27°43' W 037°22'0 0.0 28.0
2014-Sep-09 20:03N 27°43' W 037°22'0 0.0 28.0
2014-Sep-09 18:36N 27°43' W 037°22'0 0.3 28.1
2014-Sep-09 17:57N 27°43' W 037°23'1 0.6 28.1
2014-Sep-09 16:53N 27°43' W 037°22'1 1.2 28.1
2014-Sep-09 16:21N 27°43' W 037°21'1 0.5 28.2
2014-Sep-09 14:38N 27°42' W 037°20'0 0.7 28.3
2014-Sep-09 14:06N 27°43' W 037°21'1 5.1 28.2
2014-Sep-09 14:00N 27°43' W 037°20'0 0.5 28.2
2014-Sep-09 13:17N 27°43' W 037°20'0 1.2 28.1
2014-Sep-09 13:14N 27°43' W 037°20'1 0.8 28.1
2014-Sep-09 12:23N 27°43' W 037°20'0 0.1 27.9
2014-Sep-09 11:35N 27°43' W 037°20'0 1.6 27.9
2014-Sep-09 11:29N 27°43' W 037°20'0 0.4 27.9
2014-Sep-09 10:42N 27°43' W 037°19'0 0.0 27.9
2014-Sep-09 09:39N 27°43' W 037°19'0 0.3 27.9
2014-Sep-09 08:53N 27°44' W 037°20'0 0.6 27.9
2014-Sep-09 08:48N 27°44' W 037°20'0 0.4 27.9
2014-Sep-09 08:02N 27°44' W 037°19'834515886.8 27.9
2014-Sep-09 07:30N 23°10' E 116°37'834522270.0
2014-Sep-09 07:08N 27°44' W 037°20'0 3.6 27.9
2014-Sep-09 07:06N 27°44' W 037°20'   27.9

Dump ship's entire track history